FIN9YA EDDB-EFHK
Flight info
| Callsign | FIN9YA |
|---|---|
| Flight time | N/A |
| Altitude | 38000 |
| Route | GERGA M725 RENKI Y89 USEDU/N0444F370 DCT BANUB DCT GOSOT DCT KOLJA DCT DEREX DCT LONSA Q33 INTOR |
| Aircraft | A319/M-SDE3FGHIRWY/LB1 |
Departure
| Time | N/A |
|---|---|
| Airport | Berlin Brandenburg Airport (EDDB) |
Arrival
| Time | 2026-04-23 17:58 |
|---|---|
| Airport | Helsinki Vantaa Airport (EFHK) |
| Time | Latitude | Longitude | Altitude | Speed | Heading |
|---|---|---|---|---|---|
| 2026-04-23 17:07 | 56.88285 | 18.54563 | 37051 ft | 397 kts | 39° |
| 2026-04-23 17:07 | 56.90134 | 18.58324 | 37049 ft | 397 kts | 39° |
| 2026-04-23 17:07 | 56.93830 | 18.65854 | 37045 ft | 398 kts | 39° |
| 2026-04-23 17:08 | 56.97525 | 18.73424 | 37044 ft | 399 kts | 39° |
| 2026-04-23 17:08 | 57.01220 | 18.81019 | 37046 ft | 399 kts | 39° |
| 2026-04-23 17:09 | 57.04914 | 18.88634 | 37079 ft | 399 kts | 40° |
| 2026-04-23 17:09 | 57.08603 | 18.96270 | 37071 ft | 400 kts | 40° |
| 2026-04-23 17:10 | 57.11668 | 19.02625 | 37067 ft | 400 kts | 40° |
| 2026-04-23 17:10 | 57.15356 | 19.10288 | 37061 ft | 400 kts | 40° |
| 2026-04-23 17:11 | 57.19658 | 19.19266 | 37056 ft | 400 kts | 40° |
| 2026-04-23 17:11 | 57.23330 | 19.26963 | 37053 ft | 399 kts | 40° |
| 2026-04-23 17:12 | 57.26375 | 19.33372 | 37046 ft | 399 kts | 40° |
| 2026-04-23 17:12 | 57.30032 | 19.41096 | 37105 ft | 400 kts | 41° |
| 2026-04-23 17:13 | 57.34148 | 19.50319 | 37041 ft | 400 kts | 43° |
| 2026-04-23 17:13 | 57.37625 | 19.58371 | 37038 ft | 400 kts | 43° |
| 2026-04-23 17:14 | 57.40545 | 19.65120 | 37038 ft | 400 kts | 43° |
| 2026-04-23 17:14 | 57.44046 | 19.73164 | 37037 ft | 401 kts | 43° |
| 2026-04-23 17:15 | 57.47548 | 19.81218 | 37054 ft | 401 kts | 43° |
| 2026-04-23 17:15 | 57.51046 | 19.89281 | 37048 ft | 401 kts | 43° |
| 2026-04-23 17:16 | 57.54514 | 19.97307 | 37045 ft | 401 kts | 43° |
| 2026-04-23 17:16 | 57.57997 | 20.05408 | 37038 ft | 401 kts | 43° |
| 2026-04-23 17:17 | 57.61479 | 20.13520 | 37033 ft | 401 kts | 43° |
| 2026-04-23 17:17 | 57.64943 | 20.21660 | 37023 ft | 401 kts | 43° |
| 2026-04-23 17:18 | 57.70137 | 20.33885 | 37046 ft | 400 kts | 43° |
| 2026-04-23 17:19 | 57.73590 | 20.42027 | 37024 ft | 398 kts | 43° |
| 2026-04-23 17:19 | 57.77020 | 20.50133 | 37009 ft | 396 kts | 43° |
| 2026-04-23 17:20 | 57.80444 | 20.58234 | 37001 ft | 397 kts | 43° |
| 2026-04-23 17:21 | 57.87290 | 20.74550 | 37001 ft | 398 kts | 43° |
| 2026-04-23 17:21 | 57.92413 | 20.86875 | 37024 ft | 399 kts | 43° |
| 2026-04-23 17:22 | 57.97529 | 20.99234 | 37013 ft | 399 kts | 43° |
| 2026-04-23 17:23 | 58.02612 | 21.11559 | 37010 ft | 399 kts | 43° |
| 2026-04-23 17:24 | 58.07703 | 21.23963 | 37005 ft | 398 kts | 43° |
| 2026-04-23 17:24 | 58.12802 | 21.36456 | 37020 ft | 398 kts | 43° |
| 2026-04-23 17:25 | 58.17833 | 21.48857 | 36979 ft | 397 kts | 44° |
| 2026-04-23 17:26 | 58.24545 | 21.65508 | 36971 ft | 398 kts | 44° |
| 2026-04-23 17:27 | 58.29580 | 21.78072 | 36982 ft | 399 kts | 44° |
| 2026-04-23 17:27 | 58.32933 | 21.86488 | 36984 ft | 400 kts | 44° |
| 2026-04-23 17:28 | 58.36292 | 21.94935 | 36977 ft | 401 kts | 44° |
| 2026-04-23 17:28 | 58.39650 | 22.03417 | 36972 ft | 401 kts | 44° |
| 2026-04-23 17:29 | 58.43012 | 22.11936 | 36975 ft | 402 kts | 44° |
| 2026-04-23 17:30 | 58.48050 | 22.24734 | 36966 ft | 402 kts | 44° |
| 2026-04-23 17:30 | 58.53077 | 22.37573 | 36985 ft | 402 kts | 44° |
| 2026-04-23 17:31 | 58.56419 | 22.46173 | 36970 ft | 403 kts | 45° |
| 2026-04-23 17:31 | 58.59743 | 22.54761 | 36944 ft | 400 kts | 45° |
| 2026-04-23 17:32 | 58.63062 | 22.63345 | 36938 ft | 401 kts | 45° |
| 2026-04-23 17:32 | 58.66384 | 22.71969 | 36928 ft | 402 kts | 45° |
| 2026-04-23 17:33 | 58.69708 | 22.80625 | 36927 ft | 403 kts | 45° |
| 2026-04-23 17:33 | 58.73387 | 22.88518 | 36956 ft | 395 kts | 38° |
| 2026-04-23 17:34 | 58.77182 | 22.96072 | 36931 ft | 395 kts | 38° |
| 2026-04-23 17:35 | 58.82914 | 23.07522 | 36928 ft | 396 kts | 38° |
| 2026-04-23 17:35 | 58.88644 | 23.19027 | 36927 ft | 396 kts | 38° |
| 2026-04-23 17:36 | 58.92461 | 23.26725 | 36925 ft | 396 kts | 38° |
| 2026-04-23 17:36 | 58.96275 | 23.34440 | 36944 ft | 397 kts | 38° |
| 2026-04-23 17:37 | 59.00086 | 23.42178 | 36934 ft | 397 kts | 38° |
| 2026-04-23 17:38 | 59.05798 | 23.53836 | 36925 ft | 397 kts | 39° |
| 2026-04-23 17:38 | 59.09598 | 23.61631 | 36913 ft | 397 kts | 39° |
| 2026-04-23 17:39 | 59.13394 | 23.69440 | 36910 ft | 397 kts | 39° |
| 2026-04-23 17:39 | 59.15291 | 23.73345 | 36790 ft | 398 kts | 39° |
| 2026-04-23 17:39 | 59.17187 | 23.77254 | 36562 ft | 396 kts | 39° |
| 2026-04-23 17:39 | 59.19073 | 23.81166 | 36301 ft | 395 kts | 39° |
| 2026-04-23 17:40 | 59.20949 | 23.85076 | 36052 ft | 394 kts | 39° |
| 2026-04-23 17:40 | 59.22816 | 23.88977 | 35803 ft | 393 kts | 38° |
| 2026-04-23 17:40 | 59.24675 | 23.92868 | 35556 ft | 391 kts | 38° |
| 2026-04-23 17:40 | 59.26528 | 23.96760 | 35306 ft | 390 kts | 38° |
| 2026-04-23 17:41 | 59.28374 | 24.00636 | 35069 ft | 389 kts | 38° |
| 2026-04-23 17:41 | 59.32051 | 24.08345 | 34587 ft | 386 kts | 38° |
| 2026-04-23 17:41 | 59.33878 | 24.12187 | 34350 ft | 385 kts | 38° |
| 2026-04-23 17:42 | 59.37525 | 24.19891 | 32792 ft | 390 kts | 38° |
| 2026-04-23 17:42 | 59.39380 | 24.23815 | 31829 ft | 393 kts | 38° |
| 2026-04-23 17:42 | 59.41212 | 24.27716 | 31301 ft | 385 kts | 38° |
| 2026-04-23 17:43 | 59.43010 | 24.31561 | 30670 ft | 380 kts | 38° |
| 2026-04-23 17:43 | 59.44790 | 24.35362 | 30048 ft | 375 kts | 37° |
| 2026-04-23 17:43 | 59.46548 | 24.39111 | 29362 ft | 371 kts | 37° |
| 2026-04-23 17:43 | 59.48279 | 24.42808 | 28774 ft | 364 kts | 37° |
| 2026-04-23 17:44 | 59.49982 | 24.46456 | 28193 ft | 359 kts | 37° |
| 2026-04-23 17:44 | 59.51637 | 24.50004 | 27628 ft | 354 kts | 37° |
| 2026-04-23 17:44 | 59.54927 | 24.57063 | 26512 ft | 346 kts | 37° |
| 2026-04-23 17:45 | 59.56546 | 24.60547 | 25972 ft | 343 kts | 38° |
| 2026-04-23 17:45 | 59.59742 | 24.67437 | 24944 ft | 339 kts | 37° |
| 2026-04-23 17:45 | 59.61337 | 24.70844 | 24423 ft | 336 kts | 35° |
| 2026-04-23 17:46 | 59.65311 | 24.74743 | 23395 ft | 315 kts | 3° |
| 2026-04-23 17:46 | 59.67483 | 24.74623 | 22784 ft | 312 kts | 353° |
| 2026-04-23 17:46 | 59.69637 | 24.74121 | 22192 ft | 311 kts | 353° |
| 2026-04-23 17:47 | 59.71786 | 24.73631 | 21609 ft | 311 kts | 353° |
| 2026-04-23 17:47 | 59.73932 | 24.73148 | 21036 ft | 310 kts | 353° |
| 2026-04-23 17:47 | 59.78199 | 24.72190 | 19828 ft | 308 kts | 353° |
| 2026-04-23 17:48 | 59.80361 | 24.71708 | 18817 ft | 317 kts | 354° |
| 2026-04-23 17:48 | 59.82561 | 24.71257 | 18023 ft | 318 kts | 355° |
| 2026-04-23 17:48 | 59.84761 | 24.70938 | 17226 ft | 316 kts | 356° |
| 2026-04-23 17:48 | 59.86950 | 24.70693 | 16496 ft | 314 kts | 357° |
| 2026-04-23 17:49 | 59.89057 | 24.71197 | 16299 ft | 304 kts | 15° |
| 2026-04-23 17:49 | 59.90871 | 24.73364 | 15954 ft | 311 kts | 36° |
| 2026-04-23 17:49 | 59.92364 | 24.76507 | 15485 ft | 312 kts | 40° |
| 2026-04-23 17:49 | 59.93814 | 24.79713 | 15006 ft | 311 kts | 40° |
| 2026-04-23 17:50 | 59.95260 | 24.82912 | 14534 ft | 310 kts | 40° |
| 2026-04-23 17:50 | 59.98661 | 24.87365 | 13605 ft | 288 kts | 6° |
| 2026-04-23 17:50 | 60.00620 | 24.87044 | 13085 ft | 284 kts | 342° |
| 2026-04-23 17:51 | 60.02356 | 24.85222 | 12579 ft | 280 kts | 331° |
| 2026-04-23 17:51 | 60.03981 | 24.83146 | 12073 ft | 275 kts | 330° |
| 2026-04-23 17:51 | 60.07137 | 24.79073 | 11088 ft | 265 kts | 330° |
| 2026-04-23 17:52 | 60.08679 | 24.77087 | 10611 ft | 261 kts | 330° |
| 2026-04-23 17:52 | 60.11699 | 24.73211 | 9613 ft | 255 kts | 330° |
| 2026-04-23 17:52 | 60.13196 | 24.71303 | 8871 ft | 255 kts | 330° |
| 2026-04-23 17:53 | 60.16210 | 24.67556 | 7460 ft | 255 kts | 330° |
| 2026-04-23 17:53 | 60.17726 | 24.65705 | 6772 ft | 255 kts | 330° |
| 2026-04-23 17:53 | 60.19352 | 24.64370 | 6079 ft | 254 kts | 354° |
| 2026-04-23 17:54 | 60.21082 | 24.64903 | 5355 ft | 256 kts | 22° |
| 2026-04-23 17:54 | 60.22448 | 24.67106 | 4650 ft | 252 kts | 52° |
| 2026-04-23 17:54 | 60.23635 | 24.73456 | 3283 ft | 231 kts | 52° |
| 2026-04-23 17:55 | 60.25695 | 24.78161 | 1940 ft | 218 kts | 44° |
| 2026-04-23 17:55 | 60.26681 | 24.80295 | 1568 ft | 204 kts | 44° |
| 2026-04-23 17:55 | 60.27615 | 24.82333 | 1274 ft | 191 kts | 45° |
| 2026-04-23 17:56 | 60.28488 | 24.84241 | 1005 ft | 176 kts | 45° |
| 2026-04-23 17:56 | 60.30056 | 24.87676 | 538 ft | 155 kts | 44° |
| 2026-04-23 17:56 | 60.30736 | 24.89184 | 366 ft | 140 kts | 45° |
| 2026-04-23 17:57 | 60.31386 | 24.90577 | 206 ft | 134 kts | 45° |
| 2026-04-23 17:57 | 60.31793 | 24.91484 | 156 ft | 120 kts | 44° |
| 2026-04-23 17:57 | 60.32712 | 24.93507 | 180 ft | 51 kts | 48° |
| 2026-04-23 17:58 | 60.32902 | 24.93931 | 194 ft | 35 kts | 47° |
| 2026-04-23 17:58 | 60.33038 | 24.94237 | 188 ft | 17 kts | 54° |
| 2026-04-23 17:58 | 60.33048 | 24.94480 | 186 ft | 19 kts | 92° |
| 2026-04-23 17:58 | 60.33044 | 24.94616 | 183 ft | 0 kts | 97° |
| 2026-04-23 17:59 | 60.33044 | 24.94617 | 183 ft | 1 kts | 97° |
| 2026-04-23 17:59 | 60.33032 | 24.94655 | 182 ft | 6 kts | 128° |
| 2026-04-23 17:59 | 60.32991 | 24.94732 | 179 ft | 7 kts | 137° |
| 2026-04-23 17:59 | 60.32988 | 24.94738 | 179 ft | 0 kts | 138° |
| 2026-04-23 18:00 | 60.32975 | 24.94761 | 178 ft | 5 kts | 138° |
| 2026-04-23 18:00 | 60.32963 | 24.94783 | 178 ft | 0 kts | 139° |
| 2026-04-23 18:01 | 60.32957 | 24.94794 | 178 ft | 2 kts | 138° |
| 2026-04-23 18:01 | 60.32955 | 24.94798 | 178 ft | 0 kts | 136° |
| 2026-04-23 18:01 | 60.32954 | 24.94800 | 178 ft | 0 kts | 136° |
| 2026-04-23 18:02 | 60.32954 | 24.94801 | 178 ft | 1 kts | 136° |
| 2026-04-23 18:02 | 60.32945 | 24.94817 | 177 ft | 3 kts | 136° |
| 2026-04-23 18:02 | 60.32924 | 24.94857 | 177 ft | 6 kts | 136° |
| 2026-04-23 18:02 | 60.32874 | 24.94925 | 174 ft | 10 kts | 157° |
| 2026-04-23 18:03 | 60.32807 | 24.94971 | 176 ft | 10 kts | 163° |
| 2026-04-23 18:03 | 60.32743 | 24.95010 | 178 ft | 9 kts | 163° |
| 2026-04-23 18:03 | 60.32684 | 24.95047 | 180 ft | 9 kts | 161° |
| 2026-04-23 18:03 | 60.32629 | 24.95084 | 180 ft | 9 kts | 161° |
| 2026-04-23 18:04 | 60.32566 | 24.95125 | 180 ft | 10 kts | 162° |
| 2026-04-23 18:04 | 60.32490 | 24.95174 | 180 ft | 13 kts | 163° |
| 2026-04-23 18:04 | 60.32399 | 24.95234 | 178 ft | 14 kts | 162° |
| 2026-04-23 18:04 | 60.32312 | 24.95317 | 176 ft | 13 kts | 142° |
| 2026-04-23 18:05 | 60.32246 | 24.95443 | 175 ft | 13 kts | 139° |
| 2026-04-23 18:05 | 60.32181 | 24.95556 | 173 ft | 12 kts | 138° |
| 2026-04-23 18:05 | 60.32120 | 24.95672 | 173 ft | 12 kts | 136° |
| 2026-04-23 18:05 | 60.32069 | 24.95765 | 174 ft | 8 kts | 138° |
| 2026-04-23 18:06 | 60.32031 | 24.95832 | 174 ft | 7 kts | 138° |
| 2026-04-23 18:06 | 60.31996 | 24.95901 | 173 ft | 7 kts | 135° |
| 2026-04-23 18:06 | 60.31989 | 24.95915 | 172 ft | 0 kts | 136° |
| 2026-04-23 18:06 | 60.31986 | 24.95921 | 172 ft | 2 kts | 136° |
| 2026-04-23 18:07 | 60.31965 | 24.95959 | 172 ft | 6 kts | 137° |
| 2026-04-23 18:07 | 60.31915 | 24.96054 | 167 ft | 13 kts | 138° |
| 2026-04-23 18:07 | 60.31841 | 24.96159 | 167 ft | 12 kts | 152° |
| 2026-04-23 18:07 | 60.31797 | 24.96234 | 167 ft | 6 kts | 137° |
| 2026-04-23 18:08 | 60.31777 | 24.96271 | 167 ft | 2 kts | 137° |
| 2026-04-23 18:08 | 60.31777 | 24.96272 | 167 ft | 0 kts | 137° |